Time;durP1;ratioP1;P1;durP2;ratioP2;P2;SDS_P1;SDS_P2;PMS_P1;PMS_P2;Temp;Humidity;BMP_temperature;BMP_pressure;BME280_temperature;BME280_humidity;BME280_pressure;Samples;Min_cycle;Max_cycle;Signal;HPM_P1;HPM_P2
2023/07/23 00:01:26;;;;;;;8.83;4.90;;;19.70;99.90;;;;;;4982003;28;20176;-84
2023/07/23 00:03:52;;;;;;;6.17;4.10;;;19.70;99.90;;;;;;4994328;28;20469;-84
2023/07/23 00:06:20;;;;;;;7.23;4.93;;;19.70;99.90;;;;;;4995958;28;20207;-84
2023/07/23 00:08:45;;;;;;;9.87;4.07;;;19.70;99.90;;;;;;5000938;28;20270;-83
2023/07/23 00:11:11;;;;;;;9.30;4.43;;;19.70;99.90;;;;;;4983988;28;20862;-84
2023/07/23 00:13:37;;;;;;;7.47;4.17;;;19.80;99.90;;;;;;5000719;28;20182;-84
2023/07/23 00:16:02;;;;;;;6.33;4.10;;;19.80;99.20;;;;;;4993129;28;20233;-84
2023/07/23 00:18:28;;;;;;;10.43;4.70;;;19.70;98.80;;;;;;4982645;28;20181;-84
2023/07/23 00:20:53;;;;;;;6.70;4.30;;;19.70;98.70;;;;;;4975565;28;20597;-84
2023/07/23 00:23:19;;;;;;;8.17;4.90;;;19.80;98.40;;;;;;4981915;28;20191;-84
2023/07/23 00:25:44;;;;;;;5.67;4.20;;;19.80;98.70;;;;;;4989025;28;20183;-83
2023/07/23 00:28:10;;;;;;;10.60;4.77;;;19.70;99.50;;;;;;4979135;28;20196;-84
2023/07/23 00:30:35;;;;;;;9.60;4.97;;;19.80;99.80;;;;;;4998331;28;20333;-84
2023/07/23 00:33:03;;;;;;;7.97;4.70;;;19.80;99.90;;;;;;4973119;28;20216;-84
2023/07/23 00:35:29;;;;;;;8.03;5.27;;;19.80;99.90;;;;;;4990870;28;20188;-84
2023/07/23 00:37:54;;;;;;;14.47;5.33;;;19.70;99.90;;;;;;4996766;28;20497;-84
2023/07/23 00:40:20;;;;;;;8.50;4.30;;;19.70;99.90;;;;;;5004675;28;20205;-84
2023/07/23 00:42:45;;;;;;;6.30;4.50;;;19.70;99.90;;;;;;4994779;28;20283;-83
2023/07/23 00:45:11;;;;;;;7.40;5.23;;;19.70;99.90;;;;;;5001450;28;20221;-84
2023/07/23 00:47:36;;;;;;;7.20;5.07;;;19.70;99.90;;;;;;4979521;28;20238;-84
2023/07/23 00:50:03;;;;;;;6.80;4.80;;;19.60;99.90;;;;;;4994164;28;20273;-83
2023/07/23 00:52:29;;;;;;;8.20;5.70;;;19.60;99.90;;;;;;4979161;28;20183;-84
2023/07/23 00:54:55;;;;;;;6.60;5.30;;;19.60;99.90;;;;;;4996360;28;20510;-84
2023/07/23 00:57:20;;;;;;;7.47;5.10;;;19.60;99.90;;;;;;4983285;28;20493;-83
2023/07/23 00:59:46;;;;;;;6.90;4.87;;;19.60;99.90;;;;;;4996022;28;20330;-84
2023/07/23 01:02:11;;;;;;;8.10;4.73;;;19.60;99.90;;;;;;4981046;28;20201;-84
2023/07/23 01:04:37;;;;;;;7.90;5.90;;;19.60;99.90;;;;;;4974860;28;20196;-84
2023/07/23 01:07:05;;;;;;;9.80;5.23;;;19.50;99.90;;;;;;4982170;28;20241;-84
2023/07/23 01:09:32;;;;;;;7.37;5.57;;;19.50;99.90;;;;;;4994197;28;20273;-83
2023/07/23 01:11:59;;;;;;;6.93;5.30;;;19.50;99.90;;;;;;5001943;28;20440;-84
2023/07/23 01:14:24;;;;;;;5.70;5.00;;;19.50;99.90;;;;;;4992973;28;20518;-84
2023/07/23 01:16:50;;;;;;;6.93;4.93;;;19.50;99.90;;;;;;4979287;28;20488;-84
2023/07/23 01:19:16;;;;;;;7.20;5.40;;;19.50;99.90;;;;;;4987595;28;20207;-85
2023/07/23 01:21:42;;;;;;;6.57;5.37;;;19.50;99.90;;;;;;4995913;28;20450;-84
2023/07/23 01:24:07;;;;;;;8.10;5.53;;;19.40;99.90;;;;;;4989421;28;20185;-84
2023/07/23 01:26:33;;;;;;;7.37;5.50;;;19.40;99.90;;;;;;4979572;28;20235;-83
2023/07/23 01:28:58;;;;;;;6.70;5.20;;;19.40;99.90;;;;;;4985544;28;20241;-84
2023/07/23 01:31:27;;;;;;;6.23;4.97;;;19.40;99.90;;;;;;4981551;28;20214;-83
2023/07/23 01:33:53;;;;;;;6.70;5.30;;;19.40;99.90;;;;;;5005633;28;20202;-83
2023/07/23 01:36:19;;;;;;;10.63;5.23;;;19.40;99.90;;;;;;4985862;28;20477;-83
2023/07/23 01:38:45;;;;;;;6.83;4.87;;;19.40;99.90;;;;;;4995235;28;20434;-84
2023/07/23 01:41:11;;;;;;;9.00;5.60;;;19.40;99.90;;;;;;4980198;28;20177;-84
2023/07/23 01:43:38;;;;;;;8.90;5.40;;;19.40;99.90;;;;;;4982856;28;20459;-85
2023/07/23 01:46:03;;;;;;;6.83;5.57;;;19.40;99.90;;;;;;4981951;28;20196;-84
2023/07/23 01:48:29;;;;;;;9.57;5.07;;;19.40;99.90;;;;;;4979827;28;20430;-84
2023/07/23 01:50:54;;;;;;;7.90;5.10;;;19.40;99.90;;;;;;4994560;28;20717;-85
2023/07/23 01:53:20;;;;;;;7.43;6.03;;;19.40;99.90;;;;;;4982446;28;20189;-84
2023/07/23 01:55:45;;;;;;;10.00;4.97;;;19.40;99.90;;;;;;4980598;28;20204;-84
2023/07/23 01:58:11;;;;;;;9.27;5.37;;;19.30;99.90;;;;;;4977874;28;20623;-82
2023/07/23 02:00:38;;;;;;;5.93;4.53;;;19.40;99.90;;;;;;4994311;28;20189;-82
2023/07/23 02:03:03;;;;;;;6.77;4.83;;;19.40;99.90;;;;;;4991514;28;20223;-81
2023/07/23 02:05:29;;;;;;;8.40;5.03;;;19.40;99.90;;;;;;4985945;28;20440;-82
2023/07/23 02:07:55;;;;;;;7.20;4.90;;;19.30;99.90;;;;;;4983304;28;20223;-82
2023/07/23 02:10:21;;;;;;;8.20;5.10;;;19.30;99.90;;;;;;4995809;28;20519;-81
2023/07/23 02:12:46;;;;;;;8.60;5.60;;;19.30;99.90;;;;;;4983420;28;20191;-82
2023/07/23 02:15:12;;;;;;;6.60;5.47;;;19.30;99.90;;;;;;4971340;28;20446;-81
2023/07/23 02:17:38;;;;;;;8.07;4.67;;;19.20;99.90;;;;;;4997972;28;20184;-82
2023/07/23 02:20:04;;;;;;;6.57;5.03;;;19.20;99.90;;;;;;4976569;28;20195;-81
2023/07/23 02:22:30;;;;;;;5.90;4.97;;;19.20;99.90;;;;;;4982792;28;20193;-81
2023/07/23 02:24:55;;;;;;;6.43;5.30;;;19.20;99.90;;;;;;4991441;28;20448;-81
2023/07/23 02:27:21;;;;;;;7.80;5.80;;;19.20;99.90;;;;;;4984079;28;20211;-81
2023/07/23 02:29:47;;;;;;;5.47;4.93;;;19.20;99.90;;;;;;4974790;28;20207;-82
2023/07/23 02:32:12;;;;;;;6.60;4.67;;;19.10;99.90;;;;;;4986777;28;20286;-81
2023/07/23 02:34:38;;;;;;;6.33;4.90;;;19.20;99.90;;;;;;4988734;28;20222;-81
2023/07/23 02:37:04;;;;;;;11.60;4.53;;;19.20;99.90;;;;;;4985917;28;20696;-81
2023/07/23 02:39:30;;;;;;;10.20;5.30;;;19.20;99.90;;;;;;4976881;28;20193;-81
2023/07/23 02:41:56;;;;;;;8.57;4.63;;;19.20;99.90;;;;;;4994546;28;20180;-82
2023/07/23 02:44:21;;;;;;;7.60;4.90;;;19.20;99.90;;;;;;4975461;28;20440;-82
2023/07/23 02:46:47;;;;;;;6.23;4.73;;;19.20;99.90;;;;;;4975761;28;20208;-81
2023/07/23 02:49:12;;;;;;;5.97;4.33;;;19.20;99.90;;;;;;4988087;28;20293;-81
2023/07/23 02:51:38;;;;;;;11.63;5.60;;;19.20;99.90;;;;;;4992479;28;20526;-82
2023/07/23 02:54:03;;;;;;;10.10;4.77;;;19.20;99.90;;;;;;4989827;28;20607;-81
2023/07/23 02:56:29;;;;;;;6.83;4.77;;;19.20;99.90;;;;;;4999220;28;20204;-82
2023/07/23 02:58:54;;;;;;;6.50;4.57;;;19.20;99.90;;;;;;4998222;28;20201;-81
2023/07/23 03:01:20;;;;;;;5.90;4.90;;;19.20;99.90;;;;;;4974526;28;20441;-82
2023/07/23 03:03:47;;;;;;;11.20;4.67;;;19.20;99.90;;;;;;4981158;28;20198;-82
2023/07/23 03:06:13;;;;;;;6.43;4.60;;;19.30;99.90;;;;;;4979292;28;20243;-82
2023/07/23 03:08:39;;;;;;;7.93;4.00;;;19.30;99.90;;;;;;4988878;28;20459;-81
2023/07/23 03:11:05;;;;;;;5.47;4.17;;;19.30;99.90;;;;;;4985556;28;20563;-81
2023/07/23 03:13:31;;;;;;;5.67;4.07;;;19.40;99.80;;;;;;4972717;28;20180;-82
2023/07/23 03:15:56;;;;;;;5.37;3.53;;;19.40;98.90;;;;;;4986821;28;20796;-81
2023/07/23 03:18:22;;;;;;;5.30;3.70;;;19.40;97.90;;;;;;4982023;28;20212;-81
2023/07/23 03:20:47;;;;;;;4.93;3.87;;;19.50;96.90;;;;;;4990272;28;20187;-81
2023/07/23 03:23:13;;;;;;;5.17;3.70;;;19.50;96.10;;;;;;4990243;28;20256;-81
2023/07/23 03:25:38;;;;;;;7.27;4.00;;;19.60;95.40;;;;;;4996564;28;20221;-81
2023/07/23 03:28:04;;;;;;;4.93;3.80;;;19.60;94.50;;;;;;4975112;28;20226;-81
2023/07/23 03:30:29;;;;;;;6.13;3.53;;;19.70;94.10;;;;;;4976688;28;20684;-82
2023/07/23 03:32:55;;;;;;;5.80;3.80;;;19.70;93.50;;;;;;4969251;28;20223;-82
2023/07/23 03:35:21;;;;;;;5.13;4.40;;;19.70;92.60;;;;;;4984599;28;20245;-82
2023/07/23 03:37:47;;;;;;;5.30;3.93;;;19.80;92.00;;;;;;4992802;28;20203;-82
2023/07/23 03:40:12;;;;;;;11.93;3.50;;;19.80;91.30;;;;;;4994861;28;21042;-81
2023/07/23 03:42:38;;;;;;;5.10;4.03;;;19.80;91.10;;;;;;4986629;28;20450;-82
2023/07/23 03:45:04;;;;;;;4.87;3.67;;;19.80;91.00;;;;;;4975044;28;20211;-81
2023/07/23 03:47:30;;;;;;;6.17;3.50;;;19.80;90.50;;;;;;4986265;28;20338;-82
2023/07/23 03:49:55;;;;;;;5.33;4.10;;;19.80;90.40;;;;;;4987012;28;20953;-81
2023/07/23 03:52:22;;;;;;;5.87;3.60;;;19.80;90.40;;;;;;4985385;28;20189;-82
2023/07/23 03:54:47;;;;;;;9.33;3.50;;;19.80;89.10;;;;;;4965945;28;20562;-82
2023/07/23 03:57:13;;;;;;;7.03;3.10;;;19.90;88.80;;;;;;4997739;28;20461;-81
2023/07/23 03:59:43;;;;;;;4.70;3.80;;;19.90;88.40;;;;;;4976773;28;20190;-82
2023/07/23 04:02:09;;;;;;;7.13;3.20;;;19.90;87.40;;;;;;4991722;28;20187;-82
2023/07/23 04:04:36;;;;;;;8.40;3.57;;;19.90;86.60;;;;;;4985341;28;20533;-83
2023/07/23 04:07:02;;;;;;;7.73;3.10;;;19.90;86.20;;;;;;4985750;28;20606;-81
2023/07/23 04:09:28;;;;;;;6.83;3.70;;;19.90;85.90;;;;;;4980825;28;20470;-82
2023/07/23 04:11:54;;;;;;;9.43;3.90;;;19.90;85.30;;;;;;4974044;28;20431;-82
2023/07/23 04:14:19;;;;;;;3.90;2.83;;;19.90;95.30;;;;;;4979504;28;20188;-82
2023/07/23 04:16:46;;;;;;;4.93;2.93;;;19.90;84.20;;;;;;4970197;28;20471;-82
2023/07/23 04:19:12;;;;;;;5.60;3.27;;;19.90;84.10;;;;;;4994693;28;20199;-82
2023/07/23 04:21:37;;;;;;;4.63;3.23;;;19.90;83.40;;;;;;4982664;28;20457;-81
2023/07/23 04:24:03;;;;;;;4.53;3.23;;;19.80;83.70;;;;;;4993112;28;20201;-82
2023/07/23 04:26:29;;;;;;;5.00;3.43;;;19.80;82.80;;;;;;4970338;28;20253;-81
2023/07/23 04:28:55;;;;;;;6.87;3.67;;;19.90;83.10;;;;;;4992724;28;20203;-81
2023/07/23 04:31:20;;;;;;;6.73;3.10;;;19.80;81.40;;;;;;5004201;28;20901;-81
2023/07/23 04:33:46;;;;;;;2.87;2.60;;;19.80;82.40;;;;;;4983919;28;20215;-81
2023/07/23 04:36:13;;;;;;;5.20;2.90;;;19.90;82.60;;;;;;4980429;28;20235;-82
2023/07/23 04:38:40;;;;;;;6.90;3.50;;;19.80;94.50;;;;;;4992721;28;20180;-81
2023/07/23 04:41:06;;;;;;;6.43;2.90;;;19.80;81.60;;;;;;4968572;28;20454;-82
2023/07/23 04:43:35;;;;;;;3.40;2.30;;;19.90;80.60;;;;;;4980966;28;20453;-82
2023/07/23 04:46:01;;;;;;;5.03;2.60;;;19.90;81.10;;;;;;4968195;28;20180;-81
2023/07/23 04:48:27;;;;;;;4.30;2.77;;;19.90;80.10;;;;;;4967106;28;20454;-81
2023/07/23 04:51:02;;;;;;;4.67;2.93;;;19.90;81.50;;;;;;4998216;28;21047;-82
2023/07/23 04:53:27;;;;;;;5.93;2.70;;;19.90;93.80;;;;;;4984798;28;20534;-81
2023/07/23 04:55:54;;;;;;;6.90;3.20;;;19.90;79.40;;;;;;4964073;28;20453;-81
2023/07/23 04:58:20;;;;;;;3.90;2.47;;;19.90;80.50;;;;;;4991602;28;20242;-82
2023/07/23 05:00:46;;;;;;;4.90;3.33;;;19.90;78.90;;;;;;4971671;28;20504;-81
2023/07/23 05:03:11;;;;;;;8.50;3.13;;;19.90;79.30;;;;;;4983762;28;20537;-82
2023/07/23 05:05:43;;;;;;;3.50;2.90;;;19.90;79.20;;;;;;4974333;28;20528;-82
2023/07/23 05:08:09;;;;;;;4.20;3.17;;;19.90;80.00;;;;;;4973835;28;20218;-82
2023/07/23 05:10:34;;;;;;;6.60;3.20;;;20.00;80.40;;;;;;4980276;28;20482;-81
2023/07/23 05:13:00;;;;;;;4.50;3.00;;;20.10;80.80;;;;;;4980100;28;20429;-81
2023/07/23 05:15:26;;;;;;;6.33;3.13;;;20.00;81.30;;;;;;4985990;28;20183;-81
2023/07/23 05:17:52;;;;;;;4.30;2.80;;;20.10;80.80;;;;;;4986215;28;20233;-81
2023/07/23 05:20:17;;;;;;;7.00;2.67;;;20.00;81.10;;;;;;4984537;28;20192;-81
2023/07/23 05:22:43;;;;;;;4.63;3.07;;;20.10;81.00;;;;;;4986786;28;20498;-81
2023/07/23 05:25:08;;;;;;;4.27;2.47;;;20.10;82.30;;;;;;4969022;28;20236;-81
2023/07/23 05:27:34;;;;;;;5.77;2.77;;;20.20;81.90;;;;;;4983183;28;20231;-82
2023/07/23 05:30:00;;;;;;;3.77;2.70;;;20.20;82.40;;;;;;4992190;28;20932;-82
2023/07/23 05:32:26;;;;;;;5.00;2.80;;;20.20;82.50;;;;;;4992975;28;20429;-82
2023/07/23 05:34:53;;;;;;;4.87;2.63;;;20.30;82.50;;;;;;4990924;28;20415;-84
2023/07/23 05:37:19;;;;;;;3.97;3.10;;;20.30;81.40;;;;;;4966397;28;20212;-82
2023/07/23 05:39:44;;;;;;;3.83;3.40;;;20.30;82.30;;;;;;4986255;28;20497;-82
2023/07/23 05:42:10;;;;;;;4.90;3.10;;;20.30;81.50;;;;;;4987706;28;20447;-82
2023/07/23 05:44:35;;;;;;;7.30;3.10;;;20.30;81.80;;;;;;4981263;28;20190;-82
2023/07/23 05:47:01;;;;;;;5.17;2.77;;;20.40;81.80;;;;;;4973632;28;20214;-82
2023/07/23 05:49:28;;;;;;;6.00;3.27;;;20.40;81.00;;;;;;4986117;28;20203;-83
2023/07/23 05:51:53;;;;;;;6.20;3.00;;;20.50;81.40;;;;;;4988277;28;20191;-82
2023/07/23 05:54:19;;;;;;;5.77;3.07;;;20.60;81.80;;;;;;4987152;28;20450;-81
2023/07/23 05:56:44;;;;;;;4.93;3.07;;;20.60;81.00;;;;;;4994830;28;20623;-82
2023/07/23 05:59:10;;;;;;;5.80;3.10;;;20.60;79.30;;;;;;4999470;28;20276;-82
2023/07/23 06:01:36;;;;;;;5.93;3.50;;;20.70;78.80;;;;;;4989640;28;20615;-82
2023/07/23 06:04:02;;;;;;;4.27;2.90;;;20.70;78.40;;;;;;4990986;28;20185;-82
2023/07/23 06:06:28;;;;;;;9.90;3.30;;;20.70;79.10;;;;;;4999663;28;20441;-82
2023/07/23 06:08:53;;;;;;;7.50;3.80;;;20.70;79.20;;;;;;4995906;28;20259;-82
2023/07/23 06:11:20;;;;;;;5.60;3.20;;;20.70;78.00;;;;;;4986770;28;20919;-81
2023/07/23 06:13:45;;;;;;;4.80;3.10;;;20.70;78.00;;;;;;4969466;28;20267;-82
2023/07/23 06:16:11;;;;;;;10.10;3.20;;;20.70;79.50;;;;;;4995864;28;20475;-81
2023/07/23 06:18:36;;;;;;;4.90;3.10;;;20.70;79.30;;;;;;4992996;28;20269;-82
2023/07/23 06:21:05;;;;;;;5.43;3.27;;;20.70;78.00;;;;;;4979461;28;20192;-82
2023/07/23 06:23:32;;;;;;;5.80;3.00;;;20.80;78.20;;;;;;4987010;28;20281;-83
2023/07/23 06:25:58;;;;;;;5.10;3.03;;;20.80;78.40;;;;;;4966213;28;20436;-83
2023/07/23 06:28:23;;;;;;;7.83;2.70;;;20.80;78.10;;;;;;4972158;28;20981;-84
2023/07/23 06:30:53;;;;;;;8.23;3.20;;;20.80;78.20;;;;;;4994747;28;20229;-83
2023/07/23 06:33:19;;;;;;;5.17;3.40;;;20.80;78.00;;;;;;4979397;28;20203;-83
2023/07/23 06:35:45;;;;;;;7.83;2.93;;;20.80;78.30;;;;;;4989238;28;20437;-83
2023/07/23 06:38:10;;;;;;;5.67;2.90;;;20.80;78.20;;;;;;4989224;28;20673;-83
2023/07/23 06:40:36;;;;;;;3.27;2.57;;;20.90;78.40;;;;;;4976347;28;20450;-83
2023/07/23 06:43:02;;;;;;;5.60;2.63;;;20.90;78.00;;;;;;4986153;28;20227;-83
2023/07/23 06:45:28;;;;;;;3.90;3.13;;;20.90;78.20;;;;;;4998007;28;20181;-83
2023/07/23 06:47:54;;;;;;;5.70;2.90;;;20.90;79.30;;;;;;4998266;28;20488;-83
2023/07/23 06:50:20;;;;;;;5.57;2.87;;;21.00;78.20;;;;;;4986661;28;20239;-83
2023/07/23 06:52:46;;;;;;;8.53;4.13;;;21.10;77.90;;;;;;4972276;28;20482;-83
2023/07/23 06:55:11;;;;;;;6.83;3.03;;;21.10;78.20;;;;;;4982367;28;20182;-83
2023/07/23 06:57:38;;;;;;;4.00;2.67;;;21.20;78.70;;;;;;4991535;28;20456;-83
2023/07/23 07:00:08;;;;;;;5.20;2.67;;;21.40;80.30;;;;;;4986069;28;20209;-83
2023/07/23 07:02:34;;;;;;;6.13;3.07;;;21.50;81.10;;;;;;4988077;28;20466;-83
2023/07/23 07:05:00;;;;;;;11.13;2.80;;;21.70;78.60;;;;;;4991920;28;20475;-84
2023/07/23 07:07:25;;;;;;;4.07;2.80;;;21.60;78.50;;;;;;4969942;28;20245;-84
2023/07/23 07:09:52;;;;;;;5.53;2.53;;;21.60;78.50;;;;;;4975201;28;20631;-84
2023/07/23 07:12:18;;;;;;;3.50;2.90;;;21.50;77.30;;;;;;4995461;28;20581;-83
2023/07/23 07:14:43;;;;;;;8.13;3.00;;;21.50;77.90;;;;;;4994665;28;20471;-83
2023/07/23 07:17:09;;;;;;;4.93;2.93;;;21.40;79.40;;;;;;4990900;28;20213;-83
2023/07/23 07:19:34;;;;;;;5.53;2.73;;;21.30;79.70;;;;;;4985848;28;20268;-83
2023/07/23 07:22:00;;;;;;;3.73;2.90;;;21.30;81.10;;;;;;4996655;28;20240;-83
2023/07/23 07:24:25;;;;;;;5.00;3.40;;;21.20;83.60;;;;;;4993325;28;20189;-84
2023/07/23 07:26:51;;;;;;;5.53;2.93;;;21.10;84.20;;;;;;4968644;28;20257;-82
2023/07/23 07:29:16;;;;;;;4.00;2.93;;;21.00;86.30;;;;;;4986340;28;20251;-83
2023/07/23 07:31:42;;;;;;;3.13;2.70;;;20.90;89.80;;;;;;4981800;28;20187;-83
2023/07/23 07:34:07;;;;;;;7.07;3.10;;;20.90;90.40;;;;;;4975636;28;20207;-84
2023/07/23 07:36:33;;;;;;;7.50;2.83;;;20.80;92.50;;;;;;4990273;28;20219;-82
2023/07/23 07:38:58;;;;;;;9.03;2.80;;;20.70;96.00;;;;;;4995879;28;20189;-82
2023/07/23 07:41:24;;;;;;;3.70;3.00;;;20.50;99.90;;;;;;4979190;28;20189;-83
2023/07/23 07:43:49;;;;;;;3.17;2.57;;;20.40;99.90;;;;;;4965493;28;20188;-83
2023/07/23 07:46:15;;;;;;;3.93;3.20;;;20.40;99.90;;;;;;4968445;28;20295;-82
2023/07/23 07:48:42;;;;;;;4.20;3.30;;;20.40;99.90;;;;;;4978475;28;20187;-83
2023/07/23 07:51:08;;;;;;;3.47;2.70;;;20.30;99.90;;;;;;4968273;28;20554;-83
2023/07/23 07:53:35;;;;;;;6.50;3.20;;;20.50;99.90;;;;;;4972946;28;20457;-82
2023/07/23 07:56:01;;;;;;;3.80;2.70;;;20.60;99.90;;;;;;5001698;28;20535;-83
2023/07/23 07:58:27;;;;;;;4.70;3.00;;;20.60;99.90;;;;;;4981631;28;20451;-83
2023/07/23 08:00:54;;;;;;;7.23;3.37;;;20.70;99.90;;;;;;4971228;28;20537;-82
2023/07/23 08:03:22;;;;;;;4.70;3.37;;;20.90;99.90;;;;;;4976470;28;20459;-83
2023/07/23 08:05:48;;;;;;;3.90;3.03;;;21.00;99.90;;;;;;4988746;28;20420;-83
2023/07/23 08:08:15;;;;;;;3.60;2.40;;;21.10;99.90;;;;;;4989064;28;20448;-82
2023/07/23 08:10:41;;;;;;;5.87;3.27;;;21.20;99.90;;;;;;4969708;28;20216;-83
2023/07/23 08:13:09;;;;;;;4.00;2.63;;;21.30;99.90;;;;;;4991300;28;20429;-83
2023/07/23 08:15:35;;;;;;;6.13;3.00;;;21.40;99.90;;;;;;4980937;28;20215;-82
2023/07/23 08:18:01;;;;;;;3.37;2.73;;;21.30;99.90;;;;;;4988414;28;20689;-83
2023/07/23 08:20:27;;;;;;;5.80;3.20;;;21.40;99.90;;;;;;4970365;28;20185;-83
2023/07/23 08:22:54;;;;;;;4.63;3.97;;;21.20;99.90;;;;;;4973766;28;20763;-83
2023/07/23 08:25:20;;;;;;;3.93;3.00;;;20.70;99.90;;;;;;4963399;28;20435;-83
2023/07/23 08:27:48;;;;;;;4.30;2.97;;;20.40;99.90;;;;;;4982408;28;20468;-82
2023/07/23 08:30:13;;;;;;;5.80;3.50;;;20.30;99.90;;;;;;4969841;28;20459;-82
2023/07/23 08:32:41;;;;;;;3.17;2.80;;;20.30;99.90;;;;;;4984931;28;20435;-82
2023/07/23 08:35:07;;;;;;;6.20;3.87;;;20.40;99.90;;;;;;4986276;28;20180;-82
2023/07/23 08:37:32;;;;;;;3.90;2.73;;;20.60;99.90;;;;;;4989815;28;20496;-83
2023/07/23 08:39:58;;;;;;;3.90;3.13;;;20.70;99.90;;;;;;4994137;28;20830;-83
2023/07/23 08:42:56;;;;;;;4.80;2.90;;;21.00;99.90;;;;;;4986538;28;20189;-83
2023/07/23 08:45:49;;;;;;;5.60;3.33;;;21.20;99.90;;;;;;4944977;28;20206;-82
2023/07/23 08:48:16;;;;;;;3.53;2.73;;;21.20;99.90;;;;;;4984811;28;20453;-84
2023/07/23 08:50:47;;;;;;;4.30;3.00;;;21.10;99.90;;;;;;4981703;28;20456;-84
2023/07/23 08:53:15;;;;;;;5.60;2.70;;;21.00;99.90;;;;;;4972836;28;20441;-84
2023/07/23 08:55:43;;;;;;;4.37;2.70;;;21.10;99.90;;;;;;4977214;28;20468;-83
2023/07/23 08:58:14;;;;;;;4.90;3.10;;;21.30;99.90;;;;;;4979603;28;20484;-84
2023/07/23 09:00:42;;;;;;;5.47;2.90;;;21.30;99.90;;;;;;4976693;28;20449;-85
2023/07/23 09:03:09;;;;;;;3.27;2.40;;;21.40;99.90;;;;;;4983135;28;20442;-81
2023/07/23 09:05:35;;;;;;;4.87;2.90;;;21.50;99.90;;;;;;4978490;28;20545;-83
2023/07/23 09:08:02;;;;;;;4.50;3.07;;;21.50;99.90;;;;;;4969208;28;20557;-82
2023/07/23 09:10:28;;;;;;;5.60;2.20;;;21.40;99.90;;;;;;4977810;28;20292;-82
2023/07/23 09:12:53;;;;;;;4.83;1.93;;;21.30;99.90;;;;;;4992389;28;20530;-81
2023/07/23 09:15:19;;;;;;;3.87;3.47;;;21.30;99.90;;;;;;4964803;28;20210;-82
2023/07/23 09:17:51;;;;;;;3.50;2.60;;;21.40;99.90;;;;;;4988818;28;20250;-81
2023/07/23 09:20:18;;;;;;;3.03;2.40;;;21.50;99.90;;;;;;4987004;28;20186;-82
2023/07/23 09:22:45;;;;;;;2.60;1.93;;;21.50;99.90;;;;;;4980486;28;20452;-82
2023/07/23 09:25:10;;;;;;;6.90;2.20;;;21.60;99.90;;;;;;4986236;28;20442;-82
2023/07/23 09:27:42;;;;;;;7.53;2.83;;;21.70;99.90;;;;;;4984582;28;20502;-81
2023/07/23 09:30:17;;;;;;;11.90;2.40;;;22.10;99.90;;;;;;4974863;28;20200;-82
2023/07/23 09:32:43;;;;;;;2.90;2.37;;;22.40;99.90;;;;;;4975999;28;20442;-82
2023/07/23 09:35:08;;;;;;;2.27;1.93;;;22.30;99.90;;;;;;4970119;28;20551;-82
2023/07/23 09:37:35;;;;;;;2.53;2.03;;;22.30;99.90;;;;;;4970707;28;20208;-82
2023/07/23 09:40:01;;;;;;;4.57;2.33;;;22.30;99.90;;;;;;4968467;28;20237;-82
2023/07/23 09:42:26;;;;;;;2.63;1.80;;;22.40;99.90;;;;;;4974721;28;20536;-82
2023/07/23 09:44:52;;;;;;;3.90;2.10;;;22.50;99.90;;;;;;4992690;28;20451;-83
2023/07/23 09:47:24;;;;;;;3.40;1.73;;;22.70;99.90;;;;;;4985295;28;20250;-82
2023/07/23 09:49:54;;;;;;;3.10;2.20;;;22.70;99.90;;;;;;4969121;28;20581;-82
2023/07/23 09:52:23;;;;;;;2.97;2.10;;;22.80;99.90;;;;;;4983749;28;20436;-82
2023/07/23 09:54:51;;;;;;;2.40;1.70;;;23.00;99.90;;;;;;4978059;28;20450;-81
2023/07/23 09:57:18;;;;;;;3.00;1.63;;;23.30;99.90;;;;;;4972450;28;20515;-82
2023/07/23 09:59:45;;;;;;;3.70;1.93;;;23.40;99.90;;;;;;4967559;28;20520;-82
2023/07/23 10:02:12;;;;;;;2.60;1.63;;;23.50;99.90;;;;;;4987473;28;20446;-82
2023/07/23 10:04:38;;;;;;;2.30;1.80;;;23.60;99.90;;;;;;4989339;28;20474;-82
2023/07/23 10:07:05;;;;;;;4.20;1.90;;;23.70;99.90;;;;;;4972060;28;20560;-82
2023/07/23 10:09:32;;;;;;;3.93;1.63;;;23.70;99.90;;;;;;4970062;28;20696;-82
2023/07/23 10:11:58;;;;;;;2.37;1.93;;;23.60;99.90;;;;;;4978154;28;20441;-82
2023/07/23 10:14:23;;;;;;;2.60;1.57;;;23.50;99.90;;;;;;4976371;28;20438;-82
2023/07/23 10:16:51;;;;;;;3.07;2.10;;;23.30;99.90;;;;;;4975170;28;20218;-82
2023/07/23 10:19:19;;;;;;;3.33;2.43;;;23.10;99.90;;;;;;4994792;28;20193;-83
2023/07/23 10:21:51;;;;;;;4.20;1.77;;;22.90;99.90;;;;;;4981700;28;20444;-82
2023/07/23 10:24:16;;;;;;;2.47;1.90;;;23.00;99.90;;;;;;4988587;28;20442;-82
2023/07/23 10:26:47;;;;;;;4.97;2.03;;;23.10;99.90;;;;;;4984422;28;20459;-82
2023/07/23 10:29:21;;;;;;;3.40;2.43;;;23.30;99.90;;;;;;4988718;28;20772;-82
2023/07/23 10:31:47;;;;;;;2.93;2.20;;;23.40;99.90;;;;;;4988780;28;20447;-81
2023/07/23 10:34:22;;;;;;;1.80;1.47;;;23.50;99.90;;;;;;4970519;28;20445;-82
2023/07/23 10:37:18;;;;;;;3.40;1.90;;;23.40;99.90;;;;;;4980121;28;20459;-82
2023/07/23 10:39:48;;;;;;;2.37;1.80;;;23.30;99.90;;;;;;4992477;28;20446;-82
2023/07/23 10:42:34;;;;;;;2.33;1.80;;;23.20;99.90;;;;;;4990853;28;20938;-82
2023/07/23 10:45:28;;;;;;;2.17;1.80;;;23.30;99.90;;;;;;4987208;28;20452;-82
2023/07/23 10:47:56;;;;;;;2.67;1.43;;;23.80;99.90;;;;;;4970882;28;20467;-82
2023/07/23 10:50:23;;;;;;;2.93;1.80;;;23.90;99.90;;;;;;4994766;28;20548;-82
2023/07/23 10:52:50;;;;;;;2.27;1.80;;;24.30;99.90;;;;;;4991805;28;20453;-81
2023/07/23 10:55:34;;;;;;;3.47;2.27;;;24.50;99.90;;;;;;4992383;28;20434;-82
2023/07/23 10:58:02;;;;;;;3.70;1.40;;;24.30;99.90;;;;;;4985893;28;20603;-81
2023/07/23 11:00:30;;;;;;;2.50;1.93;;;24.20;99.90;;;;;;4992599;28;20458;-81
2023/07/23 11:02:56;;;;;;;2.93;1.80;;;24.10;99.90;;;;;;4991300;28;20464;-81
2023/07/23 11:05:22;;;;;;;2.33;1.70;;;23.90;99.90;;;;;;4990810;28;20501;-80
2023/07/23 11:08:15;;;;;;;2.00;1.60;;;23.70;99.90;;;;;;4992030;28;20456;-81
2023/07/23 11:10:57;;;;;;;2.73;1.70;;;23.60;99.90;;;;;;4984003;28;20753;-80
2023/07/23 11:13:26;;;;;;;3.00;1.80;;;23.30;99.90;;;;;;4971544;28;20439;-81
2023/07/23 11:15:52;;;;;;;5.17;2.23;;;23.40;99.90;;;;;;4986442;28;20436;-80
2023/07/23 11:18:20;;;;;;;2.40;1.67;;;23.50;99.90;;;;;;4980866;28;21218;-81
2023/07/23 11:20:47;;;;;;;4.43;1.90;;;23.50;99.90;;;;;;4979126;28;20190;-81
2023/07/23 11:23:14;;;;;;;2.70;1.73;;;23.40;99.90;;;;;;4985307;28;20949;-81
2023/07/23 11:25:40;;;;;;;2.20;1.53;;;23.40;99.90;;;;;;4979631;28;20579;-81
2023/07/23 11:28:09;;;;;;;3.87;1.90;;;23.40;99.90;;;;;;4962311;28;21010;-80
2023/07/23 11:30:35;;;;;;;4.37;1.83;;;23.30;99.90;;;;;;4963064;28;20203;-81
2023/07/23 11:33:05;;;;;;;5.50;2.20;;;23.10;99.90;;;;;;4958070;28;20987;-80
2023/07/23 11:35:31;;;;;;;2.67;1.63;;;22.90;99.90;;;;;;4980123;28;20562;-81
2023/07/23 11:38:01;;;;;;;2.33;1.60;;;22.70;99.90;;;;;;4966195;28;20457;-80
2023/07/23 11:40:27;;;;;;;2.60;1.60;;;22.70;99.90;;;;;;4978850;28;20510;-81
2023/07/23 11:42:53;;;;;;;1.80;1.40;;;22.60;99.90;;;;;;4987427;28;21033;-81
2023/07/23 11:45:19;;;;;;;2.50;1.80;;;22.60;99.90;;;;;;4978061;28;20568;-81
2023/07/23 11:47:46;;;;;;;2.00;1.70;;;22.70;99.90;;;;;;4980538;28;21055;-81
2023/07/23 11:50:11;;;;;;;7.23;1.83;;;23.00;99.90;;;;;;4964808;28;20460;-81
2023/07/23 11:52:37;;;;;;;2.50;1.50;;;23.00;99.90;;;;;;4971062;28;20435;-82
2023/07/23 11:55:03;;;;;;;2.40;1.70;;;22.90;99.90;;;;;;4996209;28;20235;-81
2023/07/23 11:57:29;;;;;;;2.70;1.83;;;23.00;99.90;;;;;;4980280;28;20215;-81
2023/07/23 11:59:58;;;;;;;1.50;1.40;;;23.00;99.90;;;;;;4978275;28;20184;-80
2023/07/23 12:02:25;;;;;;;2.40;1.80;;;23.00;99.90;;;;;;4980688;28;20196;-81
2023/07/23 12:04:55;;;;;;;1.83;1.40;;;23.10;99.90;;;;;;4964994;28;20477;-81
2023/07/23 12:07:21;;;;;;;2.27;1.60;;;23.10;99.90;;;;;;4969370;28;20476;-81
2023/07/23 12:09:47;;;;;;;2.30;1.67;;;23.10;99.90;;;;;;4979245;28;20483;-81
2023/07/23 12:12:13;;;;;;;1.97;1.57;;;23.10;99.90;;;;;;4975846;28;20958;-81
2023/07/23 12:14:38;;;;;;;2.13;1.80;;;23.10;99.90;;;;;;4987064;28;20213;-81
2023/07/23 12:17:04;;;;;;;1.50;1.40;;;23.00;99.90;;;;;;4980046;28;20455;-81
2023/07/23 12:19:32;;;;;;;2.27;1.20;;;23.00;99.90;;;;;;4970320;28;20192;-81
2023/07/23 12:21:58;;;;;;;1.93;1.40;;;22.90;99.90;;;;;;4982904;28;20183;-81
2023/07/23 12:24:28;;;;;;;2.00;1.37;;;22.90;99.90;;;;;;4980446;28;20901;-81
2023/07/23 12:26:58;;;;;;;3.47;1.20;;;22.80;99.90;;;;;;4968254;28;20565;-81
2023/07/23 12:29:27;;;;;;;2.27;1.70;;;22.80;99.90;;;;;;4981636;28;20584;-82
2023/07/23 12:32:13;;;;;;;14.87;1.30;;;22.80;99.90;;;;;;4965860;28;20452;-82
2023/07/23 12:34:41;;;;;;;1.80;1.40;;;23.00;99.90;;;;;;4983212;28;20455;-83
2023/07/23 12:37:07;;;;;;;2.23;1.80;;;23.30;99.90;;;;;;4966066;28;20545;-84
2023/07/23 12:39:32;;;;;;;4.23;1.47;;;23.50;99.90;;;;;;4963179;28;20453;-81
2023/07/23 12:41:58;;;;;;;2.43;1.40;;;23.80;99.90;;;;;;4977554;28;20448;-81
2023/07/23 12:44:24;;;;;;;2.53;1.50;;;24.10;99.90;;;;;;4984621;28;20605;-81